createdAt,value
2023-01-12T00:02:44.959Z,97759.44
2023-01-12T00:05:46.545Z,97759.44
2023-01-12T00:08:49.633Z,97767.72
2023-01-12T00:11:51.478Z,97759.84
2023-01-12T00:14:53.233Z,97757.34
2023-01-12T00:17:54.816Z,97755.81
2023-01-12T00:20:56.441Z,97755.81
2023-01-12T00:23:57.966Z,97766.19
2023-01-12T00:27:01.834Z,97741.41
2023-01-12T00:30:03.563Z,97783.66
2023-01-12T00:33:05.177Z,97734.63
2023-01-12T00:36:11.437Z,97753.56
2023-01-12T00:39:14.213Z,97729.91
2023-01-12T00:42:34.523Z,97732.13
2023-01-12T00:45:36.022Z,97748.38
2023-01-12T00:48:37.560Z,97741.41
2023-01-12T00:51:39.262Z,97744.47
2023-01-12T00:54:40.881Z,97750.53
2023-01-12T00:57:42.501Z,97764.41
2023-01-12T01:00:44.090Z,97749.97
2023-01-12T01:03:45.707Z,97748.31
2023-01-12T01:06:47.533Z,97739.16
2023-01-12T01:09:49.637Z,97735.56
2023-01-12T01:12:51.927Z,97745.13
2023-01-12T01:15:53.596Z,97740.41
2023-01-12T01:18:56.067Z,97720.66
2023-01-12T01:21:57.775Z,97725.78
2023-01-12T01:24:59.386Z,97733.53
2023-01-12T01:28:01.003Z,97725.31
2023-01-12T01:31:08.260Z,97732.09
2023-01-12T01:34:09.917Z,97726.38
2023-01-12T01:37:12.184Z,97741.63
2023-01-12T01:40:13.884Z,97739.94
2023-01-12T01:43:17.164Z,97739.66
2023-01-12T01:46:26.712Z,97737.84
2023-01-12T01:49:41.731Z,97754.59
2023-01-12T01:52:46.809Z,97740.63
2023-01-12T01:55:59.914Z,97756.28
2023-01-12T01:59:15.960Z,97752.16
2023-01-12T02:02:18.412Z,97759.72
2023-01-12T02:05:25.258Z,97738.25
2023-01-12T02:08:32.175Z,97722.19
2023-01-12T02:11:52.185Z,97734.41
2023-01-12T02:15:13.589Z,97739.13
2023-01-12T02:18:33.018Z,97724.00
2023-01-12T02:21:52.028Z,97741.63
2023-01-12T02:24:59.443Z,97724.69
2023-01-12T02:28:16.976Z,97716.38
2023-01-12T02:31:30.610Z,97702.50
2023-01-12T02:34:57.987Z,97712.22
2023-01-12T02:38:14.408Z,97715.66
2023-01-12T02:41:54.851Z,97709.97
2023-01-12T02:45:09.915Z,97710.66
2023-01-12T02:48:23.942Z,97715.38
2023-01-12T02:51:33.475Z,97711.78
2023-01-12T02:54:36.952Z,97688.91
2023-01-12T02:57:38.896Z,97705.53
2023-01-12T03:00:44.358Z,97716.06
2023-01-12T03:03:48.501Z,97705.66
2023-01-12T03:06:56.166Z,97709.16
2023-01-12T03:10:16.864Z,97705.53
2023-01-12T03:13:20.328Z,97702.47
2023-01-12T03:16:26.070Z,97675.75
2023-01-12T03:19:32.666Z,97691.16
2023-01-12T03:22:36.731Z,97687.44
2023-01-12T03:25:40.408Z,97691.75
2023-01-12T03:28:46.092Z,97693.56
2023-01-12T03:31:47.843Z,97694.78
2023-01-12T03:34:49.840Z,97700.88
2023-01-12T03:37:59.265Z,97686.88
2023-01-12T03:41:09.776Z,97704.78
2023-01-12T03:44:20.600Z,97675.44
2023-01-12T03:47:27.392Z,97697.97
2023-01-12T03:50:35.334Z,97692.44
2023-01-12T03:53:39.307Z,97669.41
2023-01-12T03:56:44.747Z,97664.63
2023-01-12T03:59:46.333Z,97677.25
2023-01-12T04:02:47.870Z,97683.84
2023-01-12T04:05:49.465Z,97683.19
2023-01-12T04:08:51.075Z,97673.75
2023-01-12T04:12:10.850Z,97686.19
2023-01-12T04:15:14.101Z,97686.72
2023-01-12T04:18:15.920Z,97695.31
2023-01-12T04:21:35.931Z,97687.94
2023-01-12T04:24:37.459Z,97680.56
2023-01-12T04:27:56.880Z,97673.66
2023-01-12T04:30:58.463Z,97676.00
2023-01-12T04:34:00.066Z,97669.06
2023-01-12T04:37:03.024Z,97665.63
2023-01-12T04:40:05.786Z,97682.22
2023-01-12T04:43:09.926Z,97659.22
2023-01-12T04:46:11.487Z,97668.91
2023-01-12T04:49:13.123Z,97650.63
2023-01-12T04:52:14.707Z,97643.03
2023-01-12T04:55:16.283Z,97646.78
2023-01-12T04:58:18.003Z,97651.25
2023-01-12T05:01:19.959Z,97658.16
2023-01-12T05:04:21.579Z,97686.41
2023-01-12T05:07:23.301Z,97679.81
2023-01-12T05:10:24.923Z,97679.28
2023-01-12T05:13:29.449Z,97677.59
2023-01-12T05:16:31.232Z,97688.44
2023-01-12T05:19:32.874Z,97656.63
2023-01-12T05:22:34.701Z,97644.13
2023-01-12T05:25:36.377Z,97662.84
2023-01-12T05:28:38.004Z,97658.97
2023-01-12T05:31:40.217Z,97658.22
2023-01-12T05:34:41.823Z,97647.97
2023-01-12T05:37:43.357Z,97622.41
2023-01-12T05:40:44.957Z,97618.44
2023-01-12T05:43:52.582Z,97636.91
2023-01-12T05:46:54.581Z,97618.63
2023-01-12T05:49:56.799Z,97610.31
2023-01-12T05:53:01.319Z,97617.53
2023-01-12T05:56:17.946Z,97609.03
2023-01-12T05:59:19.570Z,97609.28
2023-01-12T06:02:21.681Z,97594.91
2023-01-12T06:05:23.463Z,97602.81
2023-01-12T06:08:25.556Z,97602.34
2023-01-12T06:11:45.855Z,97614.41
2023-01-12T06:14:53.914Z,97617.69
2023-01-12T06:17:56.837Z,97629.88
2023-01-12T06:20:59.859Z,97627.31
2023-01-12T06:24:13.732Z,97630.94
2023-01-12T06:27:16.512Z,97644.84
2023-01-12T06:30:18.357Z,97633.31
2023-01-12T06:33:19.900Z,97619.19
2023-01-12T06:36:21.427Z,97621.16
2023-01-12T06:39:23.048Z,97612.25
2023-01-12T06:42:31.495Z,97608.66
2023-01-12T06:45:33.352Z,97608.53
2023-01-12T06:48:39.019Z,97598.66
2023-01-12T06:51:41.137Z,97589.94
2023-01-12T06:54:42.724Z,97587.31
2023-01-12T06:57:44.433Z,97601.44
2023-01-12T07:00:46.207Z,97603.78
2023-01-12T07:03:47.806Z,97607.09
2023-01-12T07:06:49.719Z,97603.31
2023-01-12T07:09:54.288Z,97604.97
2023-01-12T07:12:55.842Z,97595.25
2023-01-12T07:16:00.987Z,97605.28
2023-01-12T07:19:02.830Z,97611.38
2023-01-12T07:22:13.450Z,97603.47
2023-01-12T07:25:29.004Z,97594.28
2023-01-12T07:28:31.579Z,97609.78
2023-01-12T07:31:33.490Z,97575.34
2023-01-12T07:34:35.155Z,97591.13
2023-01-12T07:37:36.756Z,97611.38
2023-01-12T07:40:38.440Z,97604.81
2023-01-12T07:43:40.094Z,97601.06
2023-01-12T07:46:41.749Z,97589.03
2023-01-12T07:49:43.945Z,97593.53
2023-01-12T07:52:45.561Z,97589.75
2023-01-12T07:55:48.721Z,97601.94
2023-01-12T07:58:50.492Z,97583.56
2023-01-12T08:01:53.950Z,97592.31
2023-01-12T08:04:55.609Z,97599.59
2023-01-12T08:07:57.210Z,97576.38
2023-01-12T08:11:16.959Z,97570.44
2023-01-12T08:14:33.217Z,97573.47
2023-01-12T08:17:41.156Z,97579.91
2023-01-12T08:20:44.120Z,97594.13
2023-01-12T08:23:53.586Z,97588.88
2023-01-12T08:26:58.285Z,97596.19
2023-01-12T08:30:02.754Z,97598.22
2023-01-12T08:33:04.316Z,97581.28
2023-01-12T08:36:09.090Z,97603.56
2023-01-12T08:39:11.009Z,97607.41
2023-01-12T08:42:12.976Z,97584.31
2023-01-12T08:45:14.685Z,97595.44
2023-01-12T08:48:17.840Z,97588.19
2023-01-12T08:51:19.985Z,97607.16
2023-01-12T08:54:22.562Z,97594.47
2023-01-12T08:57:24.111Z,97593.31
2023-01-12T09:00:25.677Z,97593.16
2023-01-12T09:03:27.233Z,97572.16
2023-01-12T09:06:40.935Z,97602.84
2023-01-12T09:09:42.522Z,97591.66
2023-01-12T09:12:44.737Z,97593.81
2023-01-12T09:16:01.133Z,97593.03
2023-01-12T09:19:08.928Z,97596.53
2023-01-12T09:22:10.521Z,97585.47
2023-01-12T09:25:12.348Z,97631.34
2023-01-12T09:28:13.910Z,97589.41
2023-01-12T09:31:18.990Z,97602.78
2023-01-12T09:34:20.750Z,97598.97
2023-01-12T09:37:22.252Z,97595.50
2023-01-12T09:40:24.264Z,97596.84
2023-01-12T09:43:45.067Z,97627.38
2023-01-12T09:46:58.681Z,97628.00
2023-01-12T09:50:11.711Z,97645.59
2023-01-12T09:53:18.844Z,97645.13
2023-01-12T09:56:59.682Z,97657.94
2023-01-12T10:00:20.478Z,97635.84
2023-01-12T10:03:39.097Z,97631.94
2023-01-12T10:06:41.472Z,97639.50
2023-01-12T10:09:43.941Z,97650.06
2023-01-12T10:12:54.651Z,97610.69
2023-01-12T10:16:06.781Z,97621.59
2023-01-12T10:19:37.877Z,97613.88
2023-01-12T10:22:42.311Z,97623.16
2023-01-12T10:25:48.633Z,97633.88
2023-01-12T10:28:54.933Z,97619.19
2023-01-12T10:32:00.093Z,97625.13
2023-01-12T10:35:01.737Z,97600.38
2023-01-12T10:38:20.241Z,97620.50
2023-01-12T10:41:26.488Z,97603.34
2023-01-12T10:44:28.582Z,97586.00
2023-01-12T10:47:33.486Z,97579.25
2023-01-12T10:50:38.781Z,97582.34
2023-01-12T10:53:49.917Z,97586.97
2023-01-12T10:57:19.466Z,97577.06
2023-01-12T11:00:34.538Z,97588.75
2023-01-12T11:03:39.322Z,97589.09
2023-01-12T11:06:46.922Z,97590.56
2023-01-12T11:09:49.070Z,97577.38
2023-01-12T11:12:59.104Z,97551.03
2023-01-12T11:16:25.088Z,97570.34
2023-01-12T11:19:32.860Z,97570.34
2023-01-12T11:22:37.289Z,97565.53
2023-01-12T11:25:45.030Z,97565.97
2023-01-12T11:28:52.313Z,97577.19
2023-01-12T11:31:58.998Z,97559.72
2023-01-12T11:35:08.463Z,97556.59
2023-01-12T11:38:14.206Z,97578.50
2023-01-12T11:41:23.136Z,97593.69
2023-01-12T11:44:31.058Z,97551.16
2023-01-12T11:47:39.328Z,97546.53
2023-01-12T11:50:43.055Z,97536.66
2023-01-12T11:53:45.309Z,97506.78
2023-01-12T11:57:09.763Z,97534.34
2023-01-12T12:00:31.678Z,97527.25
2023-01-12T12:04:05.714Z,97521.13
2023-01-12T12:07:25.218Z,97525.59
2023-01-12T12:10:47.824Z,97513.06
2023-01-12T12:14:29.571Z,97498.38
2023-01-12T12:17:48.964Z,97503.31
2023-01-12T12:21:09.502Z,97491.78
2023-01-12T12:24:32.354Z,97520.47
2023-01-12T12:27:42.592Z,97523.47
2023-01-12T12:31:11.603Z,97568.84
2023-01-12T12:34:31.734Z,97503.50
2023-01-12T12:37:52.257Z,97500.88
2023-01-12T12:41:21.596Z,97493.75
2023-01-12T12:44:52.887Z,97503.31
2023-01-12T12:48:00.898Z,97503.84
2023-01-12T12:51:09.055Z,97485.50
2023-01-12T12:54:17.452Z,97482.88
2023-01-12T12:57:19.153Z,97483.53
2023-01-12T13:00:40.155Z,97475.31
2023-01-12T13:03:41.772Z,97463.25
2023-01-12T13:06:49.441Z,97473.94
2023-01-12T13:09:51.312Z,97439.47
2023-01-12T13:12:58.132Z,97472.56
2023-01-12T13:16:11.663Z,97462.16
2023-01-12T13:19:15.829Z,97456.03
2023-01-12T13:22:17.333Z,97461.69
2023-01-12T13:25:29.555Z,97483.47
2023-01-12T13:28:31.097Z,97443.50
2023-01-12T13:31:33.123Z,97441.41
2023-01-12T13:34:37.555Z,97447.84
2023-01-12T13:37:48.200Z,97442.94
2023-01-12T13:40:55.593Z,97447.53
2023-01-12T13:43:58.136Z,97453.66
2023-01-12T13:47:09.228Z,97440.28
2023-01-12T13:50:17.320Z,97433.34
2023-01-12T13:53:27.637Z,97458.13
2023-01-12T13:56:31.313Z,97446.25
2023-01-12T13:59:34.919Z,97447.22
2023-01-12T14:02:38.789Z,97455.47
2023-01-12T14:05:55.271Z,97442.44
2023-01-12T14:09:23.647Z,97428.91
2023-01-12T14:12:47.472Z,97449.69
2023-01-12T14:16:07.771Z,97444.09
2023-01-12T14:19:40.620Z,97429.41
2023-01-12T14:22:42.894Z,97443.94
2023-01-12T14:25:46.300Z,97451.03
2023-01-12T14:28:53.118Z,97432.38
2023-01-12T14:31:55.299Z,97435.03
2023-01-12T14:34:57.976Z,97433.56
2023-01-12T14:38:01.468Z,97443.28
2023-01-12T14:41:32.770Z,97452.84
2023-01-12T14:48:22.365Z,97457.47
2023-01-12T14:51:34.185Z,97411.59
2023-01-12T14:54:35.881Z,97423.00
2023-01-12T14:57:37.737Z,97394.63
2023-01-12T15:00:43.458Z,97400.72
2023-01-12T15:03:48.493Z,97401.38
2023-01-12T15:07:05.595Z,97404.00
2023-01-12T15:10:10.261Z,97401.03
2023-01-12T15:13:19.053Z,97411.13
2023-01-12T15:16:38.877Z,97401.22
2023-01-12T15:19:59.134Z,97397.91
2023-01-12T15:23:22.408Z,97398.72
2023-01-12T15:26:24.066Z,97388.34
2023-01-12T15:29:29.078Z,97398.88
2023-01-12T15:32:51.114Z,97404.34
2023-01-12T15:35:53.219Z,97377.78
2023-01-12T15:38:55.237Z,97388.50
2023-01-12T15:42:15.451Z,97383.56
2023-01-12T15:45:34.673Z,97396.94
2023-01-12T15:48:36.277Z,97393.13
2023-01-12T15:51:37.946Z,97400.56
2023-01-12T15:54:39.608Z,97409.28
2023-01-12T15:57:41.300Z,97418.19
2023-01-12T16:00:46.108Z,97394.63
2023-01-12T16:04:15.140Z,97389.66
2023-01-12T16:07:09.267Z,97387.19
2023-01-12T16:10:12.552Z,97397.75
2023-01-12T16:13:14.276Z,97387.34
2023-01-12T16:16:17.660Z,97387.69
2023-01-12T16:19:21.628Z,97376.28
2023-01-12T16:22:26.645Z,97375.94
2023-01-12T16:25:28.427Z,97378.59
2023-01-12T16:28:31.087Z,97369.03
2023-01-12T16:31:32.710Z,97378.44
2023-01-12T16:34:34.768Z,97379.28
2023-01-12T16:37:36.675Z,97383.06
2023-01-12T16:40:40.497Z,97358.16
2023-01-12T16:43:42.128Z,97370.03
2023-01-12T16:46:43.846Z,97356.34
2023-01-12T16:49:49.474Z,97387.69
2023-01-12T16:52:50.973Z,97360.47
2023-01-12T16:55:53.261Z,97387.03
2023-01-12T16:58:55.119Z,97367.06
2023-01-12T17:01:56.830Z,97391.97
2023-01-12T17:04:58.783Z,97383.38
2023-01-12T17:08:00.861Z,97365.38
2023-01-12T17:11:14.345Z,97370.38
2023-01-12T17:14:25.008Z,97373.63
2023-01-12T17:17:26.644Z,97371.00
2023-01-12T17:20:28.770Z,97365.72
2023-01-12T17:23:30.426Z,97367.22
2023-01-12T17:26:31.883Z,97350.53
2023-01-12T17:29:33.776Z,97376.78
2023-01-12T17:32:35.795Z,97374.50
2023-01-12T17:35:37.362Z,97372.00
2023-01-12T17:38:40.123Z,97367.06
2023-01-12T17:42:00.884Z,97362.75
2023-01-12T17:45:03.534Z,97351.50
2023-01-12T17:48:05.899Z,97357.44
2023-01-12T17:51:11.821Z,97369.34
2023-01-12T17:54:15.262Z,97358.44
2023-01-12T17:57:16.836Z,97346.75
2023-01-12T18:00:19.006Z,97347.59
2023-01-12T18:03:20.560Z,97344.44
2023-01-12T18:06:26.783Z,97372.63
2023-01-12T18:09:28.641Z,97350.84
2023-01-12T18:12:30.628Z,97335.50
2023-01-12T18:15:32.297Z,97357.28
2023-01-12T18:18:33.969Z,97354.66
2023-01-12T18:21:35.763Z,97334.53
2023-01-12T18:24:37.515Z,97346.22
2023-01-12T18:27:39.271Z,97350.16
2023-01-12T18:30:40.887Z,97330.03
2023-01-12T18:33:43.130Z,97356.78
2023-01-12T18:36:45.807Z,97351.50
2023-01-12T18:39:49.119Z,97330.72
2023-01-12T18:42:50.753Z,97335.34
2023-01-12T18:45:52.290Z,97336.00
2023-01-12T18:48:53.893Z,97344.06
2023-01-12T18:52:15.016Z,97346.88
2023-01-12T18:55:16.714Z,97369.81
2023-01-12T18:58:18.294Z,97313.53
2023-01-12T19:01:24.335Z,97333.03
2023-01-12T19:04:41.165Z,97324.44
2023-01-12T19:07:57.889Z,97317.19
2023-01-12T19:11:13.492Z,97311.09
2023-01-12T19:14:38.064Z,97310.22
2023-01-12T19:17:41.904Z,97298.38
2023-01-12T19:20:43.611Z,97295.72
2023-01-12T19:24:03.402Z,97303.16
2023-01-12T19:27:23.751Z,97309.91
2023-01-12T19:30:27.744Z,97319.28
2023-01-12T19:33:29.591Z,97327.53
2023-01-12T19:36:31.207Z,97308.22
2023-01-12T19:40:04.970Z,97304.09
2023-01-12T19:43:19.388Z,97305.91
2023-01-12T19:46:20.978Z,97317.78
2023-01-12T19:49:22.487Z,97308.56
2023-01-12T19:52:24.186Z,97281.94
2023-01-12T19:55:26.762Z,97265.34
2023-01-12T19:58:28.743Z,97284.13
2023-01-12T20:01:33.058Z,97298.31
2023-01-12T20:04:34.657Z,97290.34
2023-01-12T20:07:37.085Z,97281.28
2023-01-12T20:10:38.661Z,97255.72
2023-01-12T20:13:40.187Z,97272.22
2023-01-12T20:16:41.717Z,97250.13
2023-01-12T20:19:43.311Z,97257.19
2023-01-12T20:22:44.852Z,97238.53
2023-01-12T20:25:46.414Z,97257.34
2023-01-12T20:28:47.949Z,97251.75
2023-01-12T20:31:54.259Z,97243.50
2023-01-12T20:34:56.010Z,97211.66
2023-01-12T20:37:57.818Z,97235.34
2023-01-12T20:41:00.620Z,97249.75
2023-01-12T20:44:02.270Z,97245.09
2023-01-12T20:47:03.934Z,97246.44
2023-01-12T20:50:13.669Z,97235.88
2023-01-12T20:53:16.251Z,97232.44
2023-01-12T20:56:18.771Z,97241.16
2023-01-12T20:59:20.310Z,97218.69
2023-01-12T21:02:24.888Z,97262.44
2023-01-12T21:05:26.534Z,97238.00
2023-01-12T21:08:28.051Z,97272.81
2023-01-12T21:11:29.541Z,97233.16
2023-01-12T21:14:31.525Z,97225.75
2023-01-12T21:17:35.481Z,97232.34
2023-01-12T21:20:41.793Z,97225.41
2023-01-12T21:23:43.998Z,97235.81
2023-01-12T21:26:45.561Z,97221.56
2023-01-12T21:29:47.792Z,97222.59
2023-01-12T21:32:49.343Z,97202.44
2023-01-12T21:35:57.604Z,97224.22
2023-01-12T21:38:59.354Z,97199.44
2023-01-12T21:42:19.627Z,97218.41
2023-01-12T21:45:23.657Z,97201.38
2023-01-12T21:48:25.871Z,97211.94
2023-01-12T21:51:27.678Z,97204.88
2023-01-12T21:54:29.354Z,97219.06
2023-01-12T21:57:31.232Z,97187.53
2023-01-12T22:00:32.946Z,97199.38
2023-01-12T22:03:35.849Z,97183.25
2023-01-12T22:06:37.476Z,97210.50
2023-01-12T22:09:39.458Z,97206.66
2023-01-12T22:12:41.065Z,97206.66
2023-01-12T22:15:43.381Z,97213.44
2023-01-12T22:18:50.401Z,97213.44
2023-01-12T22:21:52.000Z,97188.34
2023-01-12T22:24:53.521Z,97197.59
2023-01-12T22:28:01.697Z,97227.81
2023-01-12T22:31:15.671Z,97210.31
2023-01-12T22:34:17.285Z,97199.38
2023-01-12T22:37:19.204Z,97215.25
2023-01-12T22:40:21.306Z,97222.81
2023-01-12T22:43:28.932Z,97223.84
2023-01-12T22:46:30.512Z,97216.91
2023-01-12T22:49:35.470Z,97217.72
2023-01-12T22:52:39.622Z,97223.16
2023-01-12T22:55:41.155Z,97219.19
2023-01-12T22:58:47.806Z,97205.63
2023-01-12T23:01:49.403Z,97217.38
2023-01-12T23:04:51.021Z,97217.19
2023-01-12T23:07:52.508Z,97223.78
2023-01-12T23:11:07.282Z,97226.72
2023-01-12T23:14:08.834Z,97197.69
2023-01-12T23:17:12.768Z,97219.84
2023-01-12T23:20:14.611Z,97204.47
2023-01-12T23:23:20.351Z,97188.69
2023-01-12T23:26:24.697Z,97180.50
2023-01-12T23:29:26.209Z,97185.41
2023-01-12T23:32:27.708Z,97178.78
2023-01-12T23:35:30.452Z,97173.84
2023-01-12T23:38:32.441Z,97227.69
2023-01-12T23:41:37.674Z,97162.25
2023-01-12T23:44:40.709Z,97147.84
2023-01-12T23:47:42.745Z,97148.50
2023-01-12T23:50:44.307Z,97146.03
2023-01-12T23:53:46.245Z,97140.91
2023-01-12T23:56:50.845Z,97135.63
2023-01-12T23:59:52.434Z,97124.59
